Weather at Al Muzoon West Helipad

Public forecast

Using degrees Celsius for public forecast. Weather courtesy of forecast.io.

Closest aviation weather report (METAR) to Al Muzoon West Helipad

Closest report is Al Bateen Executive Airport, 2.2 nm (4.1 km) ENE.

2024/07/21 21:00 (retrieved 1 hour ago)

OMAD 212100Z 27003KT 220V320 CAVOK 35/30 Q0994 NOSIG

Closest aviation forecast (TAF) to Al Muzoon West Helipad

Closest forecast is Al Bateen Executive Airport, 2.2 nm (4.1 km) ENE.

2024/07/21 18:00 (retrieved 4 hours ago)

TAF OMAD 211700Z 2118/2300 VRB02KT 6000 NSC PROB40 TEMPO 2118/2205 4000 HZ BKN010 PROB30 2200/2204 1500 BR BECMG 2207/2209 32012KT BECMG 2218/2220 07005KT PROB30 2221/2300 4000 HZ